Etusivu
METAR-TAF:

METAR-TAF

Lentoasemat :

Vitsebskin lentoasema

Vitsebsk, Valko-Venäjä

Leveyspiiri: 55-10N, Pituuspiiri: 030-13E, korkeus merenpinnasta: 176 m

Tämänhetkinen sää

Tämä raportti tehtiin 45 minuuttia sitten, kello 10.00 UTC
Tuuli 8 kn etelästä puuskistuen 14 kn:hen
Lämpötila 8°C
Kosteus 93%
Ilmanpaine 1025 hPa
Näkyvyys: 2200 m
Pilvistä 400 ft:n korkeudessa
utua

METAR: UMII 171000Z 17004G07MPS 2200 BR OVC004 08/07 Q1025 TEMPO 1600 BKN003 RMK QBB120

Aika: 13:45 (10:45 UTC)

Sääennuste

Tämä raportti tehtiin 2 tuntia ja 34 minuuttia sitten, kello 08.11 UTC
Ennuste voimassa 17. päivästä klo 09 UTC - 17. päivään klo 18 UTC
Tuuli 6 kn etelästä/kaakosta
Näkyvyys: 2000 m
Pilvistä 500 ft:n korkeudessa
utua
Ajoittain
17. päivästä klo 09 UTC - 17. päivään klo 18 UTC
Tuuli 10 kn etelästä
Näkyvyys: 0900 m
200 ft:n korkeudessa
tihkusadetta, sumua

TAF: UMII 170811Z 1709/1718 16003MPS 2000 BR OVC005 TEMPO 1709/1718 18005MPS 0900 DZ FG VV002

Säähavainnot ja -ennusteet yli 4000 lentoasemalta (METAR- ja TAF-raportit).

Käytössä olevat sääasemat on merkitty karttaan keltaisilla ja punaisilla pisteillä.

Aseta hiiri pisteen päälle nähdäksesi sääaseman nimen.

Klikkaa sitten nähdäksesi säähavainnot ja -ennusteet.

Kartan vaihtaminen: klikkaa mustalla rastilla varustettuja vihreitä pisteitä, niin voit zoomata sisään; viivalla varustettua vihreää pistettä, niin voit zoomata ulos tai vihreitä nuolia, niin pääset viereisille kartoille.


METAR-TAF: